Aérodrome :
LOGIN :

S'inscrire | Disclaimer

   EN    FR    IT 

 










Légende :    VFR   VFR Marginal   IFR   IFR Intensif   IFR Très Intensif
Visi : 
Plafond : 
>= 8 km
>= 3000ft
5 à 8 km
1000 à 3000 ft
1500m à 5 km
500 à 1000 ft
800 à 1500m
200 à 500 ft
< 800m
< 200 ft
Symboles :   Orages  Brouillard  Fortes neiges  Fortes précipitations  Vent > 20 kt
SIGMETs :   Divers  Orages  Givrage  Turbulence  Onde Orograph.  Cendres Volcan.






- Altitude de l'aérodrome : 1674 ft
- Code IATA : BRN


LSZB - Bern Belp

DERNIER METAR :
  • 260420Z AUTO VRB02KT 9999 -RA SCT060 BKN065 07/06 Q1023 REDZ

METARs EXPIRÉS :
  • 260350Z AUTO VRB02KT 9999 FEW043 BKN065 07/06 Q1023
  • 260320Z AUTO 06005KT 9999 FEW050 SCT065 BKN075 07/06 Q1023
  • 260250Z AUTO 06004KT 360V090 9999 FEW048 SCT060 BKN070 07/05 Q1023
  • 260220Z AUTO 07006KT 9999 SCT065 BKN090 07/06 Q1023
  • 260150Z AUTO 07005KT 9999 FEW065 OVC095 07/05 Q1023

TAF TAF LSZB
Valide du 26 à 03h jusqu'au 26 à 12h UTC


260225Z 2603/2612 06005KT 9999 SCT060 BKN080
ATIS : +41 22 417 40 76



MET'MAP, la Météo Aéronautique d'un coup d'oeil ! - Copyright ORBIFLY Décembre 2007 - Disclaimer

ORBIFLY MET'MAP TEAM :

Programmation & Développement : Alexandra Zaïnal
Sur une idée originale de : Baudouin d'Aumeries
Assistance à la programmation : Marc-Olivier Méhu
Soutien technique & logistique : Manuel Goepfert

Contact : metmap@orbifly.com




SOURCES & CREDITS :

   NOAA